createdAt,value
2022-10-22T00:00:15.948Z,14.53
2022-10-22T00:01:20.151Z,14.53
2022-10-22T00:02:22.541Z,14.53
2022-10-22T00:03:25.974Z,14.51
2022-10-22T00:04:32.846Z,14.55
2022-10-22T00:05:38.290Z,14.54
2022-10-22T00:06:40.364Z,14.56
2022-10-22T00:07:43.515Z,14.55
2022-10-22T00:08:45.960Z,14.56
2022-10-22T00:09:49.958Z,14.56
2022-10-22T00:10:52.934Z,14.56
2022-10-22T00:11:56.183Z,14.57
2022-10-22T00:13:00.290Z,14.58
2022-10-22T00:14:03.396Z,14.58
2022-10-22T00:15:07.028Z,14.57
2022-10-22T00:16:10.526Z,14.58
2022-10-22T00:17:12.564Z,14.58
2022-10-22T00:18:15.805Z,14.59
2022-10-22T00:19:18.210Z,14.58
2022-10-22T00:20:21.257Z,14.58
2022-10-22T00:21:23.985Z,14.58
2022-10-22T00:22:27.152Z,14.59
2022-10-22T00:23:29.741Z,14.58
2022-10-22T00:24:33.163Z,14.58
2022-10-22T00:25:36.445Z,14.57
2022-10-22T00:26:40.385Z,14.58
2022-10-22T00:27:42.880Z,14.58
2022-10-22T00:28:47.712Z,14.59
2022-10-22T00:29:49.795Z,14.59
2022-10-22T00:30:58.017Z,14.54
2022-10-22T00:32:00.289Z,14.59
2022-10-22T00:33:03.394Z,14.58
2022-10-22T00:34:05.970Z,14.58
2022-10-22T00:35:09.367Z,14.58
2022-10-22T00:36:11.377Z,14.58
2022-10-22T00:37:14.401Z,14.58
2022-10-22T00:38:16.980Z,14.59
2022-10-22T00:39:23.368Z,14.58
2022-10-22T00:40:25.768Z,14.59
2022-10-22T00:41:29.101Z,14.59
2022-10-22T00:42:31.240Z,14.59
2022-10-22T00:43:35.070Z,14.58
2022-10-22T00:45:14.435Z,14.59
2022-10-22T00:46:17.694Z,14.58
2022-10-22T00:47:22.954Z,14.58
2022-10-22T00:48:31.232Z,14.57
2022-10-22T00:49:33.263Z,14.57
2022-10-22T00:50:39.621Z,14.58
2022-10-22T00:51:42.071Z,14.58
2022-10-22T00:52:45.590Z,14.58
2022-10-22T00:53:51.157Z,14.59
2022-10-22T00:54:54.373Z,14.58
2022-10-22T00:55:57.026Z,14.52
2022-10-22T00:57:00.230Z,14.57
2022-10-22T00:58:02.948Z,14.57
2022-10-22T01:00:13.622Z,14.59
2022-10-22T01:01:21.630Z,14.59
2022-10-22T01:02:24.286Z,14.59
2022-10-22T01:03:27.448Z,14.58
2022-10-22T01:04:29.543Z,14.60
2022-10-22T01:05:40.467Z,14.55
2022-10-22T01:06:42.735Z,14.58
2022-10-22T01:07:49.500Z,14.59
2022-10-22T01:08:58.291Z,14.58
2022-10-22T01:10:06.392Z,14.59
2022-10-22T01:11:16.841Z,14.58
2022-10-22T01:12:25.179Z,14.58
2022-10-22T01:13:36.846Z,14.58
2022-10-22T01:15:04.524Z,14.55
2022-10-22T01:16:12.515Z,14.57
2022-10-22T01:17:25.008Z,14.57
2022-10-22T01:18:35.944Z,14.57
2022-10-22T01:19:50.064Z,14.56
2022-10-22T01:21:05.930Z,14.55
2022-10-22T01:22:17.022Z,14.49
2022-10-22T01:23:36.281Z,14.52
2022-10-22T01:24:52.409Z,14.51
2022-10-22T01:26:04.540Z,14.50
2022-10-22T01:27:27.771Z,14.48
2022-10-22T01:28:57.619Z,14.47
2022-10-22T01:30:03.934Z,14.44
2022-10-22T01:31:10.159Z,14.41
2022-10-22T01:32:17.111Z,14.41
2022-10-22T01:33:23.085Z,14.38
2022-10-22T01:34:26.188Z,14.38
2022-10-22T01:36:38.964Z,14.34
2022-10-22T01:37:45.656Z,14.31
2022-10-22T01:38:49.703Z,14.30
2022-10-22T01:39:54.179Z,14.23
2022-10-22T01:40:57.568Z,14.24
2022-10-22T01:42:00.734Z,14.23
2022-10-22T01:43:04.928Z,14.19
2022-10-22T01:44:30.805Z,14.16
2022-10-22T01:45:35.826Z,14.13
2022-10-22T01:46:39.571Z,14.11
2022-10-22T01:47:54.386Z,14.09
2022-10-22T01:49:16.119Z,14.05
2022-10-22T01:50:45.454Z,14.01
2022-10-22T01:51:58.817Z,13.99
2022-10-22T01:53:14.220Z,13.93
2022-10-22T01:54:27.208Z,13.70
2022-10-22T01:55:36.399Z,13.90
2022-10-22T01:56:55.875Z,13.86
2022-10-22T01:58:06.239Z,13.84
2022-10-22T01:59:16.648Z,13.81
2022-10-22T02:00:20.860Z,13.80
2022-10-22T02:01:31.888Z,13.77
2022-10-22T02:02:42.049Z,13.75
2022-10-22T02:03:49.295Z,13.73
2022-10-22T02:04:57.199Z,13.68
2022-10-22T02:06:05.161Z,13.70
2022-10-22T02:07:11.736Z,13.67
2022-10-22T02:08:18.526Z,13.66
2022-10-22T02:09:23.110Z,13.62
2022-10-22T02:10:27.216Z,13.63
2022-10-22T02:11:29.857Z,13.60
2022-10-22T02:12:34.961Z,13.59
2022-10-22T02:13:42.465Z,13.56
2022-10-22T02:14:46.903Z,13.56
2022-10-22T02:15:53.027Z,13.50
2022-10-22T02:16:59.305Z,13.54
2022-10-22T02:18:01.501Z,13.52
2022-10-22T02:19:09.071Z,13.52
2022-10-22T02:20:16.471Z,13.48
2022-10-22T02:21:19.583Z,13.47
2022-10-22T02:22:21.988Z,13.45
2022-10-22T02:23:25.109Z,13.43
2022-10-22T02:24:27.781Z,13.40
2022-10-22T02:25:33.776Z,13.39
2022-10-22T02:26:41.983Z,13.36
2022-10-22T02:27:47.797Z,13.29
2022-10-22T02:28:58.321Z,13.33
2022-10-22T02:30:06.489Z,13.30
2022-10-22T02:31:15.200Z,13.28
2022-10-22T02:32:22.893Z,13.26
2022-10-22T02:33:28.852Z,13.25
2022-10-22T02:34:33.236Z,13.17
2022-10-22T02:35:36.593Z,13.21
2022-10-22T02:36:42.786Z,13.19
2022-10-22T02:37:48.759Z,13.17
2022-10-22T02:38:53.344Z,13.15
2022-10-22T02:39:56.452Z,13.13
2022-10-22T02:41:00.106Z,13.12
2022-10-22T02:42:03.055Z,13.04
2022-10-22T02:43:06.615Z,13.08
2022-10-22T02:44:10.955Z,13.05
2022-10-22T02:45:14.098Z,13.05
2022-10-22T02:46:17.728Z,13.03
2022-10-22T02:47:21.234Z,13.02
2022-10-22T02:48:23.288Z,13.02
2022-10-22T02:49:26.338Z,13.02
2022-10-22T02:50:28.523Z,13.01
2022-10-22T02:51:32.562Z,13.01
2022-10-22T02:52:35.716Z,13.01
2022-10-22T02:53:39.374Z,12.90
2022-10-22T02:54:41.444Z,12.99
2022-10-22T02:55:44.583Z,12.97
2022-10-22T02:56:46.825Z,12.95
2022-10-22T02:57:49.931Z,12.95
2022-10-22T02:58:52.064Z,12.94
2022-10-22T02:59:55.273Z,12.93
2022-10-22T03:00:57.522Z,12.92
2022-10-22T03:02:01.999Z,12.91
2022-10-22T03:03:04.059Z,12.91
2022-10-22T03:04:07.093Z,12.88
2022-10-22T03:05:10.244Z,12.89
2022-10-22T03:06:13.672Z,12.88
2022-10-22T03:07:15.909Z,12.87
2022-10-22T03:08:19.150Z,12.86
2022-10-22T03:09:24.035Z,12.85
2022-10-22T03:10:27.972Z,12.82
2022-10-22T03:11:30.023Z,12.81
2022-10-22T03:12:33.113Z,12.80
2022-10-22T03:13:35.204Z,12.79
2022-10-22T03:14:39.665Z,12.78
2022-10-22T03:15:41.856Z,12.76
2022-10-22T03:16:45.036Z,12.74
2022-10-22T03:17:48.450Z,12.74
2022-10-22T03:18:51.473Z,12.72
2022-10-22T03:19:53.630Z,12.73
2022-10-22T03:21:05.412Z,12.72
2022-10-22T03:22:10.540Z,12.72
2022-10-22T03:23:16.561Z,12.72
2022-10-22T03:24:21.536Z,12.71
2022-10-22T03:25:28.525Z,12.72
2022-10-22T03:26:32.730Z,12.71
2022-10-22T03:27:37.662Z,12.72
2022-10-22T03:28:41.334Z,12.71
2022-10-22T03:29:46.938Z,12.67
2022-10-22T03:30:49.007Z,12.70
2022-10-22T03:31:53.074Z,12.70
2022-10-22T03:32:56.518Z,12.70
2022-10-22T03:33:59.583Z,12.70
2022-10-22T03:35:01.797Z,12.69
2022-10-22T03:36:05.467Z,12.69
2022-10-22T03:37:08.527Z,12.70
2022-10-22T03:38:10.970Z,12.71
2022-10-22T03:39:15.826Z,12.72
2022-10-22T03:40:19.015Z,12.72
2022-10-22T03:41:22.268Z,12.74
2022-10-22T03:42:24.892Z,12.75
2022-10-22T03:43:28.527Z,12.76
2022-10-22T03:44:31.164Z,12.77
2022-10-22T03:45:34.271Z,12.79
2022-10-22T03:46:36.643Z,12.80
2022-10-22T03:47:39.933Z,12.80
2022-10-22T03:48:43.526Z,12.82
2022-10-22T03:49:46.651Z,12.83
2022-10-22T03:50:49.552Z,12.84
2022-10-22T03:51:52.604Z,12.86
2022-10-22T03:52:54.663Z,12.86
2022-10-22T03:53:57.737Z,12.88
2022-10-22T03:54:59.776Z,12.90
2022-10-22T03:56:02.975Z,12.89
2022-10-22T03:57:05.733Z,12.92
2022-10-22T03:58:08.816Z,12.93
2022-10-22T03:59:10.942Z,12.94
2022-10-22T04:00:14.211Z,12.96
2022-10-22T04:01:16.332Z,12.96
2022-10-22T04:02:19.448Z,12.97
2022-10-22T04:03:21.500Z,12.98
2022-10-22T04:04:26.069Z,13.00
2022-10-22T04:05:28.161Z,13.03
2022-10-22T04:06:31.830Z,13.03
2022-10-22T04:07:33.839Z,13.05
2022-10-22T04:08:37.624Z,13.07
2022-10-22T04:09:39.774Z,13.08
2022-10-22T04:10:42.853Z,13.09
2022-10-22T04:11:44.925Z,13.11
2022-10-22T04:12:49.259Z,13.13
2022-10-22T04:13:51.273Z,13.14
2022-10-22T04:14:54.322Z,13.14
2022-10-22T04:15:56.451Z,13.17
2022-10-22T04:16:59.495Z,13.19
2022-10-22T04:18:01.531Z,13.19
2022-10-22T04:19:04.613Z,13.21
2022-10-22T04:20:09.289Z,13.22
2022-10-22T04:21:14.159Z,13.18
2022-10-22T04:22:16.197Z,13.25
2022-10-22T04:23:19.266Z,13.25
2022-10-22T04:24:21.423Z,13.27
2022-10-22T04:25:24.509Z,13.28
2022-10-22T04:26:26.718Z,13.26
2022-10-22T04:27:31.465Z,13.28
2022-10-22T04:28:33.567Z,13.29
2022-10-22T04:29:36.839Z,13.29
2022-10-22T04:30:38.872Z,13.32
2022-10-22T04:31:41.966Z,13.33
2022-10-22T04:32:44.169Z,13.33
2022-10-22T04:33:47.612Z,13.34
2022-10-22T04:34:49.634Z,13.33
2022-10-22T04:35:54.060Z,13.34
2022-10-22T04:36:56.554Z,13.34
2022-10-22T04:37:59.661Z,13.37
2022-10-22T04:39:02.536Z,13.37
2022-10-22T04:40:06.525Z,13.37
2022-10-22T04:41:10.433Z,13.37
2022-10-22T04:42:13.814Z,13.38
2022-10-22T04:43:15.920Z,13.39
2022-10-22T04:44:18.965Z,13.39
2022-10-22T04:45:22.054Z,13.40
2022-10-22T04:46:27.764Z,13.35
2022-10-22T04:47:30.941Z,13.39
2022-10-22T04:48:33.033Z,13.40
2022-10-22T04:49:36.113Z,13.38
2022-10-22T04:50:38.212Z,13.40
2022-10-22T04:51:43.799Z,13.40
2022-10-22T04:52:45.958Z,13.41
2022-10-22T04:53:50.149Z,13.39
2022-10-22T04:54:52.232Z,13.40
2022-10-22T04:55:55.324Z,13.41
2022-10-22T04:56:58.416Z,13.41
2022-10-22T04:58:01.382Z,13.41
2022-10-22T04:59:06.823Z,13.41
2022-10-22T05:00:10.126Z,13.41
2022-10-22T05:01:15.576Z,13.41
2022-10-22T05:02:17.730Z,13.41
2022-10-22T05:03:20.768Z,13.40
2022-10-22T05:04:22.775Z,13.40
2022-10-22T05:05:25.805Z,13.39
2022-10-22T05:06:29.021Z,13.37
2022-10-22T05:07:33.496Z,13.40
2022-10-22T05:08:35.700Z,13.39
2022-10-22T05:09:39.105Z,13.36
2022-10-22T05:10:41.127Z,13.38
2022-10-22T05:11:48.436Z,13.37
2022-10-22T05:12:51.607Z,13.38
2022-10-22T05:13:55.144Z,13.37
2022-10-22T05:14:58.177Z,13.36
2022-10-22T05:16:01.589Z,13.36
2022-10-22T05:17:04.684Z,13.36
2022-10-22T05:18:06.803Z,13.35
2022-10-22T05:19:10.175Z,13.36
2022-10-22T05:20:12.372Z,13.36
2022-10-22T05:21:17.523Z,13.34
2022-10-22T05:22:19.605Z,13.34
2022-10-22T05:23:24.065Z,13.34
2022-10-22T05:24:26.827Z,13.33
2022-10-22T05:25:29.921Z,13.31
2022-10-22T05:26:31.981Z,13.31
2022-10-22T05:27:35.023Z,13.28
2022-10-22T05:28:37.574Z,13.29
2022-10-22T05:29:40.726Z,13.29
2022-10-22T05:30:42.770Z,13.27
2022-10-22T05:31:45.923Z,13.25
2022-10-22T05:32:47.985Z,13.24
2022-10-22T05:33:51.110Z,13.24
2022-10-22T05:34:53.237Z,13.24
2022-10-22T05:35:56.683Z,13.20
2022-10-22T05:36:59.773Z,13.23
2022-10-22T05:38:01.840Z,13.22
2022-10-22T05:39:06.809Z,13.22
2022-10-22T05:40:19.313Z,13.20
2022-10-22T05:41:24.496Z,13.18
2022-10-22T05:42:26.558Z,13.18
2022-10-22T05:43:30.129Z,13.17
2022-10-22T05:44:32.364Z,13.16
2022-10-22T05:45:38.145Z,13.15
2022-10-22T05:46:43.296Z,13.12
2022-10-22T05:47:45.462Z,13.13
2022-10-22T05:48:50.904Z,13.11
2022-10-22T05:49:54.343Z,13.10
2022-10-22T05:50:58.334Z,13.07
2022-10-22T05:52:00.387Z,13.07
2022-10-22T05:53:03.464Z,13.06
2022-10-22T05:54:08.480Z,13.05
2022-10-22T05:55:11.517Z,13.04
2022-10-22T05:56:15.930Z,13.03
2022-10-22T05:57:19.013Z,13.01
2022-10-22T05:58:21.085Z,13.01
2022-10-22T05:59:24.102Z,13.00
2022-10-22T06:00:26.166Z,12.97
2022-10-22T06:01:31.236Z,12.97
2022-10-22T06:02:33.350Z,12.96
2022-10-22T06:03:36.563Z,12.96
2022-10-22T06:04:38.674Z,12.95
2022-10-22T06:05:41.805Z,12.95
2022-10-22T06:06:47.230Z,12.93
2022-10-22T06:07:49.317Z,12.91
2022-10-22T06:08:53.885Z,12.92
2022-10-22T06:09:57.417Z,12.90
2022-10-22T06:11:01.738Z,12.91
2022-10-22T06:12:04.232Z,12.90
2022-10-22T06:13:08.205Z,12.90
2022-10-22T06:14:10.762Z,12.90
2022-10-22T06:15:14.665Z,12.88
2022-10-22T06:16:16.793Z,12.89
2022-10-22T06:17:20.054Z,12.88
2022-10-22T06:18:22.103Z,12.87
2022-10-22T06:19:26.870Z,12.88
2022-10-22T06:20:28.928Z,12.86
2022-10-22T06:21:32.983Z,12.84
2022-10-22T06:22:35.033Z,12.86
2022-10-22T06:23:39.069Z,12.85
2022-10-22T06:24:45.058Z,12.84
2022-10-22T06:25:57.975Z,12.84
2022-10-22T06:27:01.065Z,12.84
2022-10-22T06:28:03.247Z,12.83
2022-10-22T06:29:06.365Z,12.83
2022-10-22T06:30:09.422Z,12.83
2022-10-22T06:31:12.506Z,12.81
2022-10-22T06:32:14.595Z,12.81
2022-10-22T06:33:17.669Z,12.82
2022-10-22T06:34:19.779Z,12.80
2022-10-22T06:35:22.818Z,12.81
2022-10-22T06:36:26.418Z,12.80
2022-10-22T06:37:28.479Z,12.81
2022-10-22T06:38:31.552Z,12.81
2022-10-22T06:39:34.592Z,12.80
2022-10-22T06:40:36.655Z,12.80
2022-10-22T06:41:41.274Z,12.81
2022-10-22T06:42:43.486Z,12.80
2022-10-22T06:43:47.570Z,12.80
2022-10-22T06:44:49.700Z,12.76
2022-10-22T06:45:52.766Z,12.79
2022-10-22T06:46:54.817Z,12.79
2022-10-22T06:47:58.268Z,12.79
2022-10-22T06:49:03.104Z,12.79
2022-10-22T06:50:06.880Z,12.76
2022-10-22T06:51:10.952Z,12.80
2022-10-22T06:52:14.072Z,12.80
2022-10-22T06:53:16.188Z,12.81
2022-10-22T06:54:19.394Z,12.80
2022-10-22T06:55:21.486Z,12.81
2022-10-22T06:56:26.558Z,12.82
2022-10-22T06:57:30.207Z,12.82
2022-10-22T06:58:33.204Z,12.83
2022-10-22T06:59:35.222Z,12.83
2022-10-22T07:00:38.257Z,12.83
2022-10-22T07:01:42.326Z,12.83
2022-10-22T07:02:44.448Z,12.83
2022-10-22T07:03:47.655Z,12.85
2022-10-22T07:04:49.780Z,12.86
2022-10-22T07:05:52.871Z,12.86
2022-10-22T07:06:55.218Z,12.87
2022-10-22T07:07:58.191Z,12.86
2022-10-22T07:09:00.902Z,12.83
2022-10-22T07:10:03.977Z,12.88
2022-10-22T07:11:07.376Z,12.89
2022-10-22T07:12:10.424Z,12.90
2022-10-22T07:13:13.805Z,12.91
2022-10-22T07:14:16.909Z,12.91
2022-10-22T07:15:18.910Z,12.93
2022-10-22T07:19:39.314Z,12.96
2022-10-22T07:20:41.590Z,12.97
2022-10-22T07:21:44.660Z,13.00
2022-10-22T07:22:46.823Z,13.00
2022-10-22T07:23:50.173Z,13.02
2022-10-22T07:24:52.219Z,13.03
2022-10-22T07:26:59.692Z,13.05
2022-10-22T07:28:01.699Z,13.07
2022-10-22T07:29:06.943Z,13.09
2022-10-22T07:30:09.899Z,13.12
2022-10-22T07:31:14.478Z,13.13
2022-10-22T07:32:18.750Z,13.15
2022-10-22T07:33:23.648Z,13.16
2022-10-22T07:34:25.666Z,13.19
2022-10-22T07:35:28.739Z,13.20
2022-10-22T07:36:30.765Z,13.23
2022-10-22T07:37:33.775Z,13.23
2022-10-22T07:38:36.469Z,13.25
2022-10-22T07:39:39.505Z,13.27
2022-10-22T07:40:41.783Z,13.28
2022-10-22T07:41:44.800Z,13.30
2022-10-22T07:42:46.796Z,13.32
2022-10-22T07:43:53.658Z,13.36
2022-10-22T07:44:57.044Z,13.38
2022-10-22T07:46:00.716Z,13.39
2022-10-22T07:47:04.598Z,13.41
2022-10-22T07:48:08.099Z,13.44
2022-10-22T07:49:11.530Z,13.47
2022-10-22T07:50:18.510Z,13.48
2022-10-22T07:51:26.307Z,13.49
2022-10-22T07:52:35.406Z,13.51
2022-10-22T07:53:40.548Z,13.52
2022-10-22T07:54:44.776Z,13.54
2022-10-22T07:55:50.235Z,13.54
2022-10-22T07:56:54.227Z,13.55
2022-10-22T07:57:57.352Z,13.56
2022-10-22T07:59:03.420Z,13.56
2022-10-22T08:00:08.986Z,13.57
2022-10-22T08:01:20.598Z,13.57
2022-10-22T08:02:23.409Z,13.57
2022-10-22T08:03:28.423Z,13.58
2022-10-22T08:04:30.508Z,13.57
2022-10-22T08:05:33.575Z,13.58
2022-10-22T08:06:38.614Z,13.58
2022-10-22T08:07:40.885Z,13.57
2022-10-22T08:08:45.758Z,13.57
2022-10-22T08:09:47.893Z,13.58
2022-10-22T08:10:53.937Z,13.58
2022-10-22T08:11:56.023Z,13.58
2022-10-22T08:12:59.831Z,13.58
2022-10-22T08:14:01.913Z,13.59
2022-10-22T08:15:07.906Z,13.59
2022-10-22T08:16:10.218Z,13.60
2022-10-22T08:17:13.297Z,13.61
2022-10-22T08:18:15.418Z,13.61
2022-10-22T08:19:21.161Z,13.63
2022-10-22T08:20:23.267Z,13.64
2022-10-22T08:21:26.670Z,13.64
2022-10-22T08:22:29.198Z,13.66
2022-10-22T08:23:32.885Z,13.67
2022-10-22T08:24:35.021Z,13.69
2022-10-22T08:25:38.259Z,13.70
2022-10-22T08:26:41.154Z,13.72
2022-10-22T08:27:44.346Z,13.75
2022-10-22T08:28:46.491Z,13.78
2022-10-22T08:29:49.993Z,13.79
2022-10-22T08:30:53.423Z,13.82
2022-10-22T08:31:56.459Z,13.85
2022-10-22T08:32:58.504Z,13.86
2022-10-22T08:34:01.684Z,13.88
2022-10-22T08:35:04.422Z,13.88
2022-10-22T08:36:08.809Z,13.91
2022-10-22T08:37:14.334Z,13.93
2022-10-22T08:38:17.462Z,13.96
2022-10-22T08:39:19.624Z,14.01
2022-10-22T08:40:29.676Z,14.05
2022-10-22T08:41:39.389Z,14.10
2022-10-22T08:43:03.333Z,14.16
2022-10-22T08:44:24.298Z,14.23
2022-10-22T08:45:34.554Z,14.28
2022-10-22T08:46:53.819Z,14.35
2022-10-22T08:48:08.987Z,14.41
2022-10-22T08:49:18.386Z,14.47
2022-10-22T08:50:27.100Z,14.53
2022-10-22T08:51:34.148Z,14.57
2022-10-22T08:52:38.025Z,14.63
2022-10-22T08:53:51.595Z,14.68
2022-10-22T08:54:59.556Z,14.74
2022-10-22T08:56:01.830Z,14.79
2022-10-22T08:57:21.353Z,14.85
2022-10-22T08:58:33.088Z,14.90
2022-10-22T08:59:41.754Z,14.95
2022-10-22T09:00:47.522Z,15.00
2022-10-22T09:01:54.358Z,15.03
2022-10-22T09:03:17.193Z,15.07
2022-10-22T09:04:25.433Z,15.12
2022-10-22T09:05:44.064Z,15.15
2022-10-22T09:06:49.540Z,15.18
2022-10-22T09:07:56.669Z,15.19
2022-10-22T09:09:01.593Z,15.19
2022-10-22T09:10:04.171Z,15.22
2022-10-22T09:11:15.066Z,15.25
2022-10-22T09:12:20.275Z,15.27
2022-10-22T09:13:24.624Z,15.29
2022-10-22T09:14:28.043Z,15.31
2022-10-22T09:15:31.469Z,15.35
2022-10-22T09:16:39.810Z,15.38
2022-10-22T09:17:53.366Z,15.42
2022-10-22T09:19:05.410Z,15.47
2022-10-22T09:20:16.290Z,15.51
2022-10-22T09:21:30.267Z,15.54
2022-10-22T09:22:38.221Z,15.61
2022-10-22T09:23:56.693Z,15.66
2022-10-22T09:25:03.115Z,15.71
2022-10-22T09:26:14.779Z,15.76
2022-10-22T09:27:19.629Z,15.78
2022-10-22T09:28:22.868Z,15.84
2022-10-22T09:29:32.960Z,15.88
2022-10-22T09:30:38.700Z,15.91
2022-10-22T09:31:42.155Z,15.95
2022-10-22T09:32:47.570Z,15.98
2022-10-22T09:33:51.127Z,16.00
2022-10-22T09:34:59.228Z,16.04
2022-10-22T09:36:03.619Z,16.08
2022-10-22T09:37:09.229Z,16.12
2022-10-22T09:38:13.934Z,16.13
2022-10-22T09:39:27.948Z,16.18
2022-10-22T09:40:29.998Z,16.19
2022-10-22T09:41:33.248Z,16.23
2022-10-22T09:42:35.386Z,16.25
2022-10-22T09:43:38.777Z,16.27
2022-10-22T09:44:43.734Z,16.30
2022-10-22T09:45:56.187Z,16.33
2022-10-22T09:46:58.229Z,16.37
2022-10-22T09:48:12.940Z,16.41
2022-10-22T09:49:17.742Z,16.44
2022-10-22T09:50:27.383Z,16.48
2022-10-22T09:51:40.590Z,16.51
2022-10-22T09:52:44.095Z,16.54
2022-10-22T09:53:48.366Z,16.59
2022-10-22T09:54:53.752Z,16.62
2022-10-22T09:55:57.901Z,16.66
2022-10-22T09:57:07.232Z,16.68
2022-10-22T09:58:12.379Z,16.73
2022-10-22T09:59:16.742Z,16.77
2022-10-22T10:00:19.918Z,16.80
2022-10-22T10:01:29.169Z,16.83
2022-10-22T10:02:38.786Z,16.86
2022-10-22T10:03:43.557Z,16.87
2022-10-22T10:04:48.840Z,16.90
2022-10-22T10:05:55.645Z,16.92
2022-10-22T10:06:58.418Z,16.95
2022-10-22T10:08:09.458Z,16.97
2022-10-22T10:09:16.960Z,16.99
2022-10-22T10:10:32.881Z,17.00
2022-10-22T10:11:42.910Z,17.00
2022-10-22T10:12:52.610Z,17.02
2022-10-22T10:14:08.031Z,17.03
2022-10-22T10:15:20.934Z,17.04
2022-10-22T10:16:45.987Z,17.05
2022-10-22T10:17:58.153Z,17.05
2022-10-22T10:19:19.255Z,17.07
2022-10-22T10:20:32.390Z,17.09
2022-10-22T10:21:44.978Z,17.13
2022-10-22T10:22:59.201Z,17.17
2022-10-22T10:24:09.978Z,17.21
2022-10-22T10:25:31.928Z,17.25
2022-10-22T10:26:43.325Z,17.28
2022-10-22T10:27:54.030Z,17.33
2022-10-22T10:29:05.707Z,17.36
2022-10-22T10:30:14.101Z,17.40
2022-10-22T10:31:26.359Z,17.44
2022-10-22T10:32:45.027Z,17.48
2022-10-22T10:33:57.042Z,17.52
2022-10-22T10:35:15.277Z,17.57
2022-10-22T10:36:24.979Z,17.61
2022-10-22T10:37:32.281Z,17.64
2022-10-22T10:38:49.465Z,17.68
2022-10-22T10:40:11.687Z,17.72
2022-10-22T10:41:20.493Z,17.76
2022-10-22T10:42:31.894Z,17.79
2022-10-22T10:43:45.856Z,17.84
2022-10-22T10:45:03.681Z,17.89
2022-10-22T10:47:34.186Z,17.93
2022-10-22T10:48:50.109Z,17.97
2022-10-22T10:49:58.413Z,18.00
2022-10-22T10:51:12.838Z,18.02
2022-10-22T10:52:24.210Z,18.06
2022-10-22T10:53:40.193Z,18.08
2022-10-22T10:54:48.459Z,18.08
2022-10-22T10:55:59.717Z,18.14
2022-10-22T10:57:10.482Z,18.17
2022-10-22T10:58:18.195Z,18.20
2022-10-22T10:59:33.434Z,18.22
2022-10-22T11:00:41.159Z,18.25
2022-10-22T11:01:57.360Z,18.28
2022-10-22T11:03:28.261Z,18.32
2022-10-22T11:05:00.179Z,18.38
2022-10-22T11:06:07.799Z,18.41
2022-10-22T11:07:30.013Z,18.46
2022-10-22T11:08:41.885Z,18.51
2022-10-22T11:09:51.009Z,18.56
2022-10-22T11:11:01.139Z,18.62
2022-10-22T11:12:08.892Z,18.67
2022-10-22T11:13:19.478Z,18.73
2022-10-22T11:14:27.896Z,18.79
2022-10-22T11:15:34.684Z,18.82
2022-10-22T11:16:43.551Z,18.86
2022-10-22T11:17:48.250Z,18.90
2022-10-22T11:18:59.473Z,18.93
2022-10-22T11:20:09.895Z,18.95
2022-10-22T11:21:22.412Z,18.99
2022-10-22T11:22:29.664Z,19.00
2022-10-22T11:23:39.593Z,19.01
2022-10-22T11:24:47.650Z,19.01
2022-10-22T11:25:50.733Z,18.97
2022-10-22T11:26:59.058Z,18.95
2022-10-22T11:28:20.332Z,18.91
2022-10-22T11:29:37.515Z,18.89
2022-10-22T11:30:44.307Z,18.85
2022-10-22T11:31:48.637Z,18.82
2022-10-22T11:32:56.201Z,18.80
2022-10-22T11:34:28.333Z,18.77
2022-10-22T11:35:34.861Z,18.69
2022-10-22T11:36:39.956Z,18.74
2022-10-22T11:37:45.332Z,18.72
2022-10-22T11:38:47.517Z,18.71
2022-10-22T11:39:54.260Z,18.67
2022-10-22T11:40:59.465Z,18.64
2022-10-22T11:42:06.401Z,18.67
2022-10-22T11:43:11.077Z,18.66
2022-10-22T11:44:23.618Z,18.68
2022-10-22T11:45:33.310Z,18.68
2022-10-22T11:46:43.269Z,18.69
2022-10-22T11:47:59.154Z,18.68
2022-10-22T11:49:04.517Z,18.68
2022-10-22T11:50:22.803Z,18.67
2022-10-22T11:51:33.332Z,18.66
2022-10-22T11:52:42.099Z,18.66
2022-10-22T11:53:44.169Z,18.67
2022-10-22T11:54:47.214Z,18.68
2022-10-22T11:55:51.583Z,18.73
2022-10-22T11:57:00.001Z,18.76
2022-10-22T11:58:24.056Z,18.79
2022-10-22T11:59:39.556Z,18.85
2022-10-22T12:00:49.171Z,18.89
2022-10-22T12:01:57.031Z,18.91
2022-10-22T12:03:06.024Z,18.93
2022-10-22T12:04:23.691Z,18.93
2022-10-22T12:05:35.131Z,19.01
2022-10-22T12:06:56.954Z,19.04
2022-10-22T12:08:23.136Z,19.10
2022-10-22T12:09:32.799Z,19.16
2022-10-22T12:10:37.144Z,19.20
2022-10-22T12:11:42.741Z,19.25
2022-10-22T12:12:52.862Z,19.31
2022-10-22T12:14:05.667Z,19.38
2022-10-22T12:15:27.096Z,19.44
2022-10-22T12:16:57.742Z,19.47
2022-10-22T12:18:01.872Z,19.51
2022-10-22T12:19:12.348Z,19.53
2022-10-22T12:20:17.572Z,19.51
2022-10-22T12:21:19.877Z,19.53
2022-10-22T12:22:24.837Z,19.52
2022-10-22T12:23:34.495Z,19.49
2022-10-22T12:24:40.742Z,19.46
2022-10-22T12:25:42.932Z,19.41
2022-10-22T12:26:47.137Z,19.39
2022-10-22T12:27:53.375Z,19.33
2022-10-22T12:29:00.310Z,19.27
2022-10-22T12:30:14.872Z,19.21
2022-10-22T12:31:17.584Z,19.14
2022-10-22T12:32:20.657Z,19.09
2022-10-22T12:33:24.050Z,19.05
2022-10-22T12:34:27.121Z,19.02
2022-10-22T12:35:32.276Z,18.99
2022-10-22T12:36:37.067Z,18.95
2022-10-22T12:37:40.291Z,18.93
2022-10-22T12:38:47.230Z,18.91
2022-10-22T12:39:50.462Z,18.89
2022-10-22T12:40:56.117Z,18.86
2022-10-22T12:41:59.378Z,18.83
2022-10-22T12:43:03.151Z,18.81
2022-10-22T12:44:07.142Z,18.75
2022-10-22T12:45:16.105Z,18.75
2022-10-22T12:46:19.508Z,18.74
2022-10-22T12:47:21.676Z,18.71
2022-10-22T12:48:28.132Z,18.70
2022-10-22T12:49:35.787Z,18.70
2022-10-22T12:50:44.444Z,18.71
2022-10-22T12:51:47.692Z,18.70
2022-10-22T12:52:50.949Z,18.67
2022-10-22T12:53:56.110Z,18.69
2022-10-22T12:54:59.206Z,18.69
2022-10-22T12:56:05.110Z,18.69
2022-10-22T12:57:14.492Z,18.70
2022-10-22T12:58:19.164Z,18.68
2022-10-22T12:59:25.621Z,18.72
2022-10-22T13:00:34.133Z,18.74
2022-10-22T13:01:39.146Z,18.75
2022-10-22T13:02:43.529Z,18.78
2022-10-22T13:03:49.934Z,18.81
2022-10-22T13:05:16.062Z,18.86
2022-10-22T13:06:26.441Z,18.90
2022-10-22T13:07:40.108Z,18.93
2022-10-22T13:08:42.852Z,18.95
2022-10-22T13:09:49.984Z,18.99
2022-10-22T13:10:54.761Z,19.03
2022-10-22T13:12:04.665Z,19.05
2022-10-22T13:13:07.386Z,19.08
2022-10-22T13:14:21.340Z,19.09
2022-10-22T13:15:36.936Z,19.04
2022-10-22T13:16:41.161Z,19.11
2022-10-22T13:17:43.733Z,19.13
2022-10-22T13:18:47.568Z,19.14
2022-10-22T13:20:01.638Z,19.17
2022-10-22T13:21:06.315Z,19.22
2022-10-22T13:22:28.523Z,19.26
2022-10-22T13:23:33.791Z,19.31
2022-10-22T13:24:39.164Z,19.31
2022-10-22T13:25:43.889Z,19.32
2022-10-22T13:26:49.925Z,19.33
2022-10-22T13:27:56.213Z,19.29
2022-10-22T13:29:01.191Z,19.28
2022-10-22T13:30:15.307Z,19.25
2022-10-22T13:31:25.012Z,19.22
2022-10-22T13:32:32.851Z,19.20
2022-10-22T13:33:39.236Z,19.17
2022-10-22T13:34:42.229Z,19.16
2022-10-22T13:35:49.370Z,19.15
2022-10-22T13:36:54.777Z,19.16
2022-10-22T13:37:57.265Z,19.16
2022-10-22T13:39:00.440Z,19.17
2022-10-22T13:40:02.503Z,19.18
2022-10-22T13:41:20.340Z,19.17
2022-10-22T13:42:23.466Z,19.19
2022-10-22T13:43:27.051Z,19.17
2022-10-22T13:44:30.335Z,19.14
2022-10-22T13:45:32.374Z,19.13
2022-10-22T13:46:40.574Z,19.07
2022-10-22T13:47:45.221Z,19.04
2022-10-22T13:48:50.746Z,19.00
2022-10-22T13:50:59.270Z,18.90
2022-10-22T13:52:01.372Z,18.86
2022-10-22T13:53:05.588Z,18.81
2022-10-22T13:54:14.111Z,18.73
2022-10-22T13:55:20.159Z,18.69
2022-10-22T13:56:24.026Z,18.64
2022-10-22T13:57:27.155Z,18.61
2022-10-22T13:58:29.206Z,18.56
2022-10-22T13:59:32.954Z,18.52
2022-10-22T14:00:36.198Z,18.49
2022-10-22T14:01:39.053Z,18.43
2022-10-22T14:02:42.671Z,18.41
2022-10-22T14:03:47.373Z,18.38
2022-10-22T14:04:49.827Z,18.33
2022-10-22T14:05:53.046Z,18.33
2022-10-22T14:06:56.794Z,18.31
2022-10-22T14:08:03.087Z,18.30
2022-10-22T14:09:08.965Z,18.28
2022-10-22T14:10:17.425Z,18.27
2022-10-22T14:11:20.466Z,18.27
2022-10-22T14:12:25.239Z,18.26
2022-10-22T14:13:28.426Z,18.30
2022-10-22T14:14:30.974Z,18.31
2022-10-22T14:15:35.470Z,18.32
2022-10-22T14:16:38.031Z,18.35
2022-10-22T14:17:45.907Z,18.36
2022-10-22T14:18:48.814Z,18.37
2022-10-22T14:19:51.914Z,18.38